Skip Navigation Links Skip Navigation Links

Current Weather

New River Valley, Dublin, Va.

For information only: do not use for flight planning or navigation.
Latest weather
Observation time Friday, May 25, 2018 8:15 AM EDT
Local time Friday, May 25, 2018 8:35 AM EDT
Flight conditions Marginal Visual Meteorological Conditions
Winds
Wind direction West-Northwest (290°)
Wind speed 3 mph
Visibility 10 mi.
Sky condition
Ceiling 1,600 ft. overcast
Cloud layer overcast 1,600 ft.
Temperature 65°F
Dewpoint 63°F
Altimeter 30.19 in.Hg
Derived measurements
Relative humidity 92%
Density altitude 2478 ft.
Remarks
Fully automated report.
Automated weather observing station with precipitation discriminator.
METAR KPSK 251215Z AUTO 29003KT 10SM OVC016 19/17 A3019 RMK AO2 T01850172

Settings

Location code

InnerDrive.Weather 4.0.6615.0 Release CLR 4.0.30319.42000
Copyright ©2018 Inner Drive Technology. All rights reserved. Portions Copyright ©1986-2018 David Braverman.

Find weather

Site navigation


Skip Navigation Links

Place info

Page info

PayPal - The safer, easier way to pay online!

Return home.

Copyright ©2018 Inner Drive Technology. Purveyors of fine, hand-crafted computer software. Page printed 2018-05-25T12:35:24 UTC.